Time;durP1;ratioP1;P1;durP2;ratioP2;P2;SDS_P1;SDS_P2;PMS_P1;PMS_P2;Temp;Humidity;BMP_temperature;BMP_pressure;BME280_temperature;BME280_humidity;BME280_pressure;Samples;Min_cycle;Max_cycle;Signal;HPM_P1;HPM_P2
2021/01/17 00:01:56;;;;;;;24.00;8.73;;;;;;;-5.07;66.72;94666.41;5054881;28;20714;-77
2021/01/17 00:04:22;;;;;;;23.10;9.85;;;;;;;-5.02;66.57;94667.94;5055076;28;20214;-78
2021/01/17 00:06:48;;;;;;;16.80;10.27;;;;;;;-5.06;66.16;94666.34;5054717;28;20579;-78
2021/01/17 00:09:15;;;;;;;20.70;9.80;;;;;;;-4.99;66.09;94667.84;5055045;28;20573;-78
2021/01/17 00:11:42;;;;;;;26.92;10.70;;;;;;;-4.90;65.81;94663.38;5055071;28;20214;-78
2021/01/17 00:14:08;;;;;;;18.65;8.35;;;;;;;-4.79;65.50;94663.88;5054809;28;20194;-78
2021/01/17 00:16:39;;;;;;;27.40;10.55;;;;;;;-4.83;64.98;94665.69;5054666;28;20202;-78
2021/01/17 00:19:05;;;;;;;12.60;8.00;;;;;;;-4.89;65.72;94665.88;5054402;28;20199;-78
2021/01/17 00:21:31;;;;;;;24.83;9.82;;;;;;;-5.01;67.57;94667.06;5054597;28;20234;-78
2021/01/17 00:23:58;;;;;;;22.15;8.75;;;;;;;-5.15;68.29;94670.91;5054912;28;20217;-78
2021/01/17 00:26:24;;;;;;;19.38;8.35;;;;;;;-5.19;68.73;94664.19;5054668;28;20257;-78
2021/01/17 00:28:51;;;;;;;16.85;9.73;;;;;;;-5.15;68.74;94665.78;5054769;28;20199;-78
2021/01/17 00:31:18;;;;;;;33.60;11.52;;;;;;;-5.21;69.38;94660.81;4986664;28;20198;-78
2021/01/17 00:33:44;;;;;;;21.10;9.93;;;;;;;-5.15;69.39;94656.38;5054233;28;20251;-79
2021/01/17 00:36:11;;;;;;;13.43;8.60;;;;;;;-5.17;69.59;94665.00;5054458;28;20199;-77
2021/01/17 00:38:37;;;;;;;23.45;11.30;;;;;;;-5.14;69.60;94673.41;5054302;28;20202;-77
2021/01/17 00:41:03;;;;;;;14.23;8.50;;;;;;;-5.33;70.42;94672.22;5054649;28;20198;-77
2021/01/17 00:43:30;;;;;;;17.33;9.10;;;;;;;-5.33;70.66;94672.22;5035370;28;20210;-77
2021/01/17 00:46:00;;;;;;;17.02;8.80;;;;;;;-5.46;71.23;94668.34;5053884;28;20233;-77
2021/01/17 00:48:26;;;;;;;10.90;7.43;;;;;;;-5.58;71.77;94666.09;5053288;28;20256;-77
2021/01/17 00:50:52;;;;;;;19.95;7.85;;;;;;;-5.57;71.93;94668.59;5035217;28;20203;-77
2021/01/17 00:53:19;;;;;;;19.55;8.82;;;;;;;-5.65;72.34;94663.72;5053946;28;20199;-78
2021/01/17 00:55:45;;;;;;;20.08;9.55;;;;;;;-5.65;72.15;94666.25;5054032;28;20268;-77
2021/01/17 00:58:12;;;;;;;13.93;8.07;;;;;;;-5.66;72.16;94662.03;5054317;28;20206;-77
2021/01/17 01:00:38;;;;;;;9.50;8.40;;;;;;;-5.51;71.85;94658.22;5054110;28;20290;-76
2021/01/17 01:03:06;;;;;;;11.68;7.75;;;;;;;-5.42;71.68;94662.25;5054252;28;20544;-77
2021/01/17 01:05:32;;;;;;;18.08;8.15;;;;;;;-5.37;70.78;94656.13;5053984;28;20230;-78
2021/01/17 01:07:59;;;;;;;18.02;9.35;;;;;;;-5.33;70.75;94656.88;5053755;28;20203;-77
2021/01/17 01:10:26;;;;;;;19.25;9.25;;;;;;;-5.29;70.44;94658.47;5019008;28;20198;-78
2021/01/17 01:12:53;;;;;;;20.08;8.68;;;;;;;-5.18;69.96;94651.38;5053785;28;20268;-78
2021/01/17 01:15:20;;;;;;;18.75;8.73;;;;;;;-5.19;69.26;94649.69;5053803;28;20203;-78
2021/01/17 01:17:46;;;;;;;16.08;8.80;;;;;;;-5.12;69.11;94656.31;5053363;28;20202;-78
2021/01/17 01:20:14;;;;;;;17.67;7.43;;;;;;;-5.28;69.11;94649.94;5053708;28;20195;-78
2021/01/17 01:22:41;;;;;;;11.20;7.32;;;;;;;-5.30;69.34;94644.03;5034639;28;20403;-78
2021/01/17 01:25:09;;;;;;;18.88;8.10;;;;;;;-5.37;69.52;94645.06;5053653;28;20199;-78
2021/01/17 01:27:35;;;;;;;10.60;6.57;;;;;;;-5.42;69.28;94645.22;5053840;28;20206;-77
2021/01/17 01:30:02;;;;;;;16.02;9.23;;;;;;;-5.43;69.19;94650.38;5018413;28;20210;-78
2021/01/17 01:32:28;;;;;;;14.25;7.45;;;;;;;-5.54;69.39;94647.25;5053835;28;20211;-78
2021/01/17 01:34:54;;;;;;;16.05;7.50;;;;;;;-5.43;69.46;94645.25;5053300;28;20207;-78
2021/01/17 01:37:22;;;;;;;14.98;7.65;;;;;;;-5.54;69.34;94642.97;5053749;28;20230;-78
2021/01/17 01:39:49;;;;;;;13.20;7.15;;;;;;;-5.52;69.25;94648.88;5053403;28;20207;-78
2021/01/17 01:42:15;;;;;;;13.82;7.88;;;;;;;-5.55;68.56;94640.44;5053096;28;20207;-78
2021/01/17 01:44:42;;;;;;;7.20;5.63;;;;;;;-5.58;68.93;94641.38;5034486;28;20198;-78
2021/01/17 01:47:15;;;;;;;14.55;7.72;;;;;;;-5.61;68.92;94641.47;5053102;28;20223;-78
2021/01/17 01:49:42;;;;;;;12.27;6.43;;;;;;;-5.58;68.98;94645.66;5053407;28;20210;-78
2021/01/17 01:52:13;;;;;;;16.75;6.32;;;;;;;-5.63;69.27;94641.50;5053320;28;20207;-79
2021/01/17 01:54:41;;;;;;;7.05;5.80;;;;;;;-5.74;69.45;94632.47;5053315;28;20217;-78
2021/01/17 01:57:08;;;;;;;9.07;6.60;;;;;;;-5.80;69.73;94643.66;5053093;28;20209;-78
2021/01/17 01:59:35;;;;;;;10.85;7.95;;;;;;;-5.72;69.63;94643.47;5052746;28;20203;-78
2021/01/17 02:02:06;;;;;;;10.88;7.13;;;;;;;-5.73;69.74;94632.41;5053219;28;20207;-78
2021/01/17 02:04:34;;;;;;;13.98;8.13;;;;;;;-5.70;69.94;94637.44;5053388;28;20293;-78
2021/01/17 02:07:24;;;;;;;14.95;7.10;;;;;;;-5.64;69.63;94634.72;5053338;28;20222;-78
2021/01/17 02:09:51;;;;;;;16.48;7.85;;;;;;;-5.67;69.21;94624.59;5052846;28;20199;-77
2021/01/17 02:12:26;;;;;;;13.10;7.95;;;;;;;-5.62;68.99;94625.28;5052978;28;20550;-78
2021/01/17 02:14:56;;;;;;;9.55;5.95;;;;;;;-5.59;68.74;94623.53;5052693;28;20253;-78
2021/01/17 02:17:27;;;;;;;16.80;9.60;;;;;;;-5.68;68.92;94630.56;5053128;28;20211;-79
2021/01/17 02:20:13;;;;;;;12.60;9.13;;;;;;;-5.67;68.97;94632.25;5053294;28;20195;-78
2021/01/17 02:22:46;;;;;;;14.05;6.40;;;;;;;-5.65;69.41;94625.38;5053199;28;20234;-78
2021/01/17 02:25:15;;;;;;;12.90;8.13;;;;;;;-5.69;69.17;94633.16;5052694;28;20202;-78
2021/01/17 02:27:44;;;;;;;11.00;6.72;;;;;;;-5.66;68.97;94633.91;5052948;28;20238;-79
2021/01/17 02:30:13;;;;;;;21.13;6.82;;;;;;;-5.71;69.11;94635.75;5052914;28;20199;-78
2021/01/17 02:32:45;;;;;;;13.85;7.15;;;;;;;-5.62;69.01;94630.41;5018399;28;20207;-78
2021/01/17 02:35:13;;;;;;;10.95;6.68;;;;;;;-5.61;68.86;94636.34;5019001;28;20207;-79
2021/01/17 02:37:47;;;;;;;9.55;6.93;;;;;;;-5.59;69.04;94636.31;5052735;28;20214;-78
2021/01/17 02:40:33;;;;;;;13.18;7.35;;;;;;;-5.57;69.11;94635.38;5052904;28;20207;-78
2021/01/17 02:43:02;;;;;;;13.77;6.70;;;;;;;-5.66;69.54;94645.88;5052983;28;20214;-79
2021/01/17 02:45:28;;;;;;;9.35;5.60;;;;;;;-5.63;69.73;94638.94;5052298;28;20280;-78
2021/01/17 02:47:54;;;;;;;15.18;7.20;;;;;;;-5.68;70.19;94645.91;5052295;28;20207;-78
2021/01/17 02:50:21;;;;;;;12.60;7.55;;;;;;;-5.65;70.51;94655.19;5052426;28;20264;-79
2021/01/17 02:52:53;;;;;;;17.35;8.82;;;;;;;-5.54;69.91;94649.78;5052332;28;20226;-78
2021/01/17 02:55:21;;;;;;;15.50;8.20;;;;;;;-5.53;69.55;94649.75;5052010;28;20448;-78
2021/01/17 02:57:53;;;;;;;17.10;8.00;;;;;;;-5.57;69.13;94645.59;5052674;28;20449;-78
2021/01/17 03:00:24;;;;;;;15.25;9.32;;;;;;;-5.47;69.40;94633.44;5052882;28;20203;-78
2021/01/17 03:02:51;;;;;;;15.13;7.50;;;;;;;-5.47;68.91;94638.56;5052316;28;20593;-78
2021/01/17 03:05:21;;;;;;;13.18;7.93;;;;;;;-5.41;68.40;94640.94;5052386;28;20206;-78
2021/01/17 03:07:50;;;;;;;12.05;7.57;;;;;;;-5.36;68.15;94636.53;5052351;28;20642;-78
2021/01/17 03:10:17;;;;;;;17.20;8.73;;;;;;;-5.28;67.93;94631.19;5053262;28;20670;-78
2021/01/17 03:12:44;;;;;;;14.55;8.93;;;;;;;-5.23;67.72;94621.66;5055918;28;20217;-78
2021/01/17 03:15:11;;;;;;;13.40;9.00;;;;;;;-5.29;67.71;94620.13;5056097;28;20214;-79
2021/01/17 03:17:37;;;;;;;21.60;9.38;;;;;;;-5.21;67.56;94619.91;5055796;28;20309;-78
2021/01/17 03:20:04;;;;;;;17.67;8.90;;;;;;;-5.23;67.28;94612.28;5055940;28;20206;-78
2021/01/17 03:22:31;;;;;;;19.52;10.40;;;;;;;-5.16;67.13;94618.06;5036642;28;20237;-78
2021/01/17 03:24:57;;;;;;;16.23;8.55;;;;;;;-5.20;66.90;94627.56;5056364;28;20218;-78
2021/01/17 03:27:23;;;;;;;8.50;6.60;;;;;;;-5.19;67.09;94623.28;5055498;28;20268;-78
2021/01/17 03:29:51;;;;;;;12.00;7.32;;;;;;;-5.10;66.47;94631.50;5056033;28;20203;-79
2021/01/17 03:32:17;;;;;;;11.98;7.10;;;;;;;-5.05;66.57;94632.22;5055734;28;20194;-78
2021/01/17 03:34:48;;;;;;;12.50;7.95;;;;;;;-4.85;66.06;94633.38;5055874;28;20640;-79
2021/01/17 03:37:14;;;;;;;15.77;7.95;;;;;;;-4.70;65.81;94632.88;5055433;28;20249;-79
2021/01/17 03:39:41;;;;;;;16.42;7.70;;;;;;;-4.71;65.12;94631.22;5020085;28;20194;-79
2021/01/17 03:42:07;;;;;;;12.95;8.70;;;;;;;-4.75;65.05;94624.50;5055546;28;20203;-78
2021/01/17 03:44:33;;;;;;;18.50;7.68;;;;;;;-4.83;65.00;94629.03;5055466;28;20545;-78
2021/01/17 03:47:00;;;;;;;17.73;8.70;;;;;;;-4.84;65.16;94632.47;5054970;28;20229;-78
2021/01/17 03:49:27;;;;;;;13.52;9.55;;;;;;;-4.86;65.67;94626.56;5055182;28;20579;-78
2021/01/17 03:51:53;;;;;;;13.32;8.43;;;;;;;-4.84;65.48;94624.81;5055097;28;20260;-78
2021/01/17 03:54:19;;;;;;;18.63;9.93;;;;;;;-4.95;65.61;94629.38;5055031;28;20211;-79
2021/01/17 03:56:46;;;;;;;19.10;8.45;;;;;;;-4.93;65.67;94631.00;5036585;28;20210;-79
2021/01/17 03:59:13;;;;;;;13.75;7.82;;;;;;;-4.82;65.27;94630.72;5054888;28;20293;-79
2021/01/17 04:01:39;;;;;;;14.57;7.82;;;;;;;-4.77;65.15;94639.09;5055131;28;20215;-79
2021/01/17 04:04:06;;;;;;;15.63;7.93;;;;;;;-4.73;65.42;94638.94;5054859;28;20206;-79
2021/01/17 04:06:33;;;;;;;14.40;7.82;;;;;;;-4.64;65.01;94637.81;5055243;28;20222;-79
2021/01/17 04:08:59;;;;;;;16.40;8.55;;;;;;;-4.67;64.48;94632.78;5055184;28;20576;-79
2021/01/17 04:11:25;;;;;;;16.45;8.65;;;;;;;-4.66;64.34;94637.03;5055025;28;20272;-79
2021/01/17 04:13:51;;;;;;;21.90;10.85;;;;;;;-4.61;64.30;94637.75;5055147;28;20233;-79
2021/01/17 04:16:18;;;;;;;15.60;9.07;;;;;;;-4.64;64.04;94637.81;5055264;28;20207;-79
2021/01/17 04:18:44;;;;;;;18.67;9.05;;;;;;;-4.59;64.30;94630.84;5054984;28;20203;-78
2021/01/17 04:21:11;;;;;;;13.73;9.10;;;;;;;-4.48;63.77;94633.06;5052320;28;20202;-78
2021/01/17 04:23:38;;;;;;;11.25;7.75;;;;;;;-4.41;63.52;94635.38;5054979;28;20209;-79
2021/01/17 04:26:04;;;;;;;19.15;9.30;;;;;;;-4.37;63.11;94638.69;5054455;28;20230;-78
2021/01/17 04:28:31;;;;;;;18.45;10.20;;;;;;;-4.30;62.92;94640.19;5036072;28;20248;-76
2021/01/17 04:30:57;;;;;;;10.05;7.28;;;;;;;-4.22;62.71;94642.50;5054886;28;20202;-77
2021/01/17 04:33:23;;;;;;;10.07;5.30;;;;;;;-4.18;61.11;94641.50;5054520;28;20643;-76
2021/01/17 04:35:50;;;;;;;11.27;6.18;;;;;;;-4.12;61.04;94641.31;5054582;28;20214;-76
2021/01/17 04:38:17;;;;;;;9.68;7.07;;;;;;;-4.08;60.71;94645.44;5054438;28;20195;-77
2021/01/17 04:40:43;;;;;;;11.75;6.15;;;;;;;-4.14;59.81;94643.91;5054821;28;20211;-77
2021/01/17 04:43:19;;;;;;;11.48;7.07;;;;;;;-4.07;60.06;94647.13;5054683;28;20194;-77
2021/01/17 04:45:47;;;;;;;7.60;5.15;;;;;;;-4.03;59.01;94640.19;5054355;28;20565;-81
2021/01/17 04:48:15;;;;;;;15.35;6.78;;;;;;;-3.98;59.05;94646.00;5054034;28;20230;-77
2021/01/17 04:50:45;;;;;;;14.35;6.40;;;;;;;-4.20;58.69;94648.41;5054201;28;20207;-77
2021/01/17 04:53:12;;;;;;;335.45;111.47;;;;;;;-4.19;59.18;94650.09;5053732;28;20639;-78
2021/01/17 04:55:40;;;;;;;22.08;10.30;;;;;;;-4.21;59.71;94655.25;5018759;28;20245;-79
2021/01/17 04:58:17;;;;;;;12.32;6.88;;;;;;;-4.19;59.67;94652.66;5072496;28;20202;-77
2021/01/17 05:00:48;;;;;;;10.40;6.32;;;;;;;-4.25;59.51;94650.28;5053909;28;20210;-78
2021/01/17 05:03:25;;;;;;;10.55;6.10;;;;;;;-4.18;60.14;94656.88;5054157;28;20198;-78
2021/01/17 05:06:06;;;;;;;16.85;7.80;;;;;;;-4.15;60.30;94654.22;5053855;28;20758;-77
2021/01/17 05:08:34;;;;;;;10.82;7.15;;;;;;;-4.10;60.20;94655.75;5053717;28;20233;-78
2021/01/17 05:11:04;;;;;;;13.15;7.32;;;;;;;-4.08;60.18;94653.97;5053733;28;20218;-77
2021/01/17 05:13:35;;;;;;;12.73;5.82;;;;;;;-3.96;59.56;94663.00;5053668;28;20252;-77
2021/01/17 05:16:05;;;;;;;9.85;5.88;;;;;;;-3.93;59.03;94662.06;5053780;28;20639;-77
2021/01/17 05:18:32;;;;;;;12.13;5.57;;;;;;;-3.98;58.45;94658.81;5053978;28;20238;-78
2021/01/17 05:21:00;;;;;;;9.77;5.63;;;;;;;-4.08;57.17;94660.81;5053862;28;20202;-78
2021/01/17 05:23:34;;;;;;;10.88;5.72;;;;;;;-4.15;57.05;94656.78;5054117;28;20314;-80
2021/01/17 05:26:03;;;;;;;9.75;6.25;;;;;;;-4.25;56.75;94666.50;5053690;28;20280;-80
2021/01/17 05:28:31;;;;;;;11.15;5.25;;;;;;;-4.40;57.72;94666.94;5053770;28;20203;-78
2021/01/17 05:30:58;;;;;;;8.27;5.75;;;;;;;-4.49;56.67;94659.56;5053661;28;20202;-78
2021/01/17 05:33:27;;;;;;;10.98;5.90;;;;;;;-4.55;57.13;94658.03;5017729;28;20214;-78
2021/01/17 05:35:54;;;;;;;10.02;5.53;;;;;;;-4.53;56.88;94651.16;5053669;28;20234;-78
2021/01/17 05:38:21;;;;;;;8.20;6.57;;;;;;;-4.49;56.96;94651.88;5053095;28;20596;-78
2021/01/17 05:40:47;;;;;;;13.88;6.15;;;;;;;-4.51;57.50;94649.38;5053226;28;20195;-79
2021/01/17 05:43:15;;;;;;;9.23;5.55;;;;;;;-4.54;57.34;94646.06;5034779;28;20207;-79
2021/01/17 05:45:41;;;;;;;7.65;6.25;;;;;;;-4.49;57.93;94651.88;5053172;28;20199;-79
2021/01/17 05:48:08;;;;;;;8.30;6.68;;;;;;;-4.48;57.79;94653.56;5053494;28;20225;-79
2021/01/17 05:50:36;;;;;;;11.40;6.30;;;;;;;-4.54;57.61;94664.00;5062634;28;20293;-79
2021/01/17 05:53:04;;;;;;;11.10;6.03;;;;;;;-4.58;57.89;94659.84;5059174;28;20214;-79
2021/01/17 05:55:32;;;;;;;11.73;7.20;;;;;;;-4.69;57.94;94649.91;5053101;28;20217;-78
2021/01/17 05:58:20;;;;;;;16.90;7.55;;;;;;;-4.76;58.44;94653.56;5053384;28;20214;-79
2021/01/17 06:00:47;;;;;;;12.88;6.82;;;;;;;-4.79;58.82;94649.38;5072376;28;20690;-78
2021/01/17 06:03:18;;;;;;;16.60;7.10;;;;;;;-4.75;58.95;94656.06;5072951;28;20285;-79
2021/01/17 06:05:48;;;;;;;29.60;9.05;;;;;;;-4.71;58.49;94656.81;5072617;28;20236;-78
2021/01/17 06:08:18;;;;;;;14.85;6.20;;;;;;;-4.91;58.01;94659.13;5072880;28;20212;-79
2021/01/17 06:10:45;;;;;;;15.60;6.63;;;;;;;-4.85;58.17;94664.91;5072697;28;20202;-79
2021/01/17 06:13:21;;;;;;;17.45;8.60;;;;;;;-4.81;58.13;94660.53;5072757;28;20251;-78
2021/01/17 06:15:47;;;;;;;17.23;8.18;;;;;;;-5.02;58.75;94654.31;5072512;28;20194;-79
2021/01/17 06:18:18;;;;;;;18.35;7.80;;;;;;;-5.28;59.76;94660.16;5071305;28;20763;-79
2021/01/17 06:20:45;;;;;;;15.30;7.53;;;;;;;-5.26;60.58;94668.63;5062544;28;20216;-78
2021/01/17 06:23:11;;;;;;;25.90;8.98;;;;;;;-5.12;60.89;94669.09;5064721;28;20230;-78
2021/01/17 06:25:38;;;;;;;15.65;9.45;;;;;;;-5.01;60.44;94672.16;5072458;28;20211;-78
2021/01/17 06:28:09;;;;;;;28.10;11.93;;;;;;;-4.92;60.85;94670.22;5072448;28;20202;-79
2021/01/17 06:30:36;;;;;;;25.63;12.50;;;;;;;-4.83;61.30;94665.69;5072347;28;20194;-78
2021/01/17 06:33:04;;;;;;;13.45;8.10;;;;;;;-4.79;60.38;94663.88;5072759;28;20194;-78
2021/01/17 06:35:32;;;;;;;18.67;8.05;;;;;;;-4.69;59.12;94672.94;5037503;28;20209;-78
2021/01/17 06:38:15;;;;;;;9.85;6.97;;;;;;;-4.61;58.46;94667.63;5072461;28;20243;-78
2021/01/17 06:40:43;;;;;;;14.43;6.82;;;;;;;-4.47;57.80;94675.72;5072450;28;20236;-78
2021/01/17 06:43:11;;;;;;;20.83;11.55;;;;;;;-4.33;57.76;94667.63;5072455;28;20252;-78
2021/01/17 06:45:42;;;;;;;49.75;27.13;;;;;;;-4.23;57.45;94674.97;5074089;28;20202;-77
2021/01/17 06:48:20;;;;;;;26.08;14.30;;;;;;;-4.14;57.35;94678.94;5076487;28;20206;-79
2021/01/17 06:50:46;;;;;;;19.25;10.55;;;;;;;-4.04;57.17;94674.38;5076282;28;20229;-77
2021/01/17 06:53:22;;;;;;;15.82;10.10;;;;;;;-3.90;56.56;94683.28;5040665;28;20285;-76
2021/01/17 06:55:48;;;;;;;23.17;10.40;;;;;;;-3.75;56.84;94682.81;5056083;28;20198;-78
2021/01/17 06:58:17;;;;;;;23.67;10.70;;;;;;;-4.02;59.83;94688.81;5056166;28;20264;-79
2021/01/17 07:00:46;;;;;;;27.23;12.65;;;;;;;-4.26;63.21;94689.59;5055909;28;20206;-78
2021/01/17 07:03:16;;;;;;;23.25;13.18;;;;;;;-4.23;63.61;94689.50;5055902;28;20206;-79
2021/01/17 07:06:16;;;;;;;25.27;13.98;;;;;;;-4.48;66.12;94694.53;5055959;28;20639;-78
2021/01/17 07:08:52;;;;;;;25.08;13.57;;;;;;;-5.40;71.06;94686.06;4994114;28;20204;-78
2021/01/17 07:11:45;;;;;;;28.10;15.43;;;;;;;-5.11;71.57;94686.09;4898650;28;20218;-79
2021/01/17 07:14:16;;;;;;;25.95;14.07;;;;;;;-4.95;71.26;94689.06;4885841;29;20211;-78
2021/01/17 07:16:49;;;;;;;37.80;16.40;;;;;;;-5.04;72.12;94679.09;4885472;29;20600;-80
2021/01/17 07:19:21;;;;;;;32.88;17.90;;;;;;;-5.17;73.34;94686.28;4917438;29;20214;-78
2021/01/17 07:21:50;;;;;;;30.65;14.85;;;;;;;-5.06;72.36;94686.81;4885963;29;20329;-79
2021/01/17 07:24:20;;;;;;;23.80;11.73;;;;;;;-4.95;71.73;94683.09;4917290;29;20203;-79
2021/01/17 07:27:07;;;;;;;29.92;14.95;;;;;;;-5.28;72.89;94675.50;4916999;29;20242;-77
2021/01/17 07:29:36;;;;;;;19.77;12.63;;;;;;;-5.15;72.47;94681.97;4917203;29;20235;-78
2021/01/17 07:32:25;;;;;;;25.98;12.52;;;;;;;-5.27;73.78;94674.63;4917376;29;20815;-78
2021/01/17 07:34:53;;;;;;;30.35;15.02;;;;;;;-5.20;74.12;94681.25;4917211;29;20211;-78
2021/01/17 07:37:22;;;;;;;32.30;16.40;;;;;;;-4.91;73.12;94679.59;4916955;29;20282;-80
2021/01/17 07:39:57;;;;;;;25.77;14.00;;;;;;;-4.86;71.11;94676.03;4917083;29;20208;-80
2021/01/17 07:42:24;;;;;;;33.22;14.13;;;;;;;-4.97;72.05;94674.63;4918352;29;20267;-79
2021/01/17 07:44:55;;;;;;;20.08;12.45;;;;;;;-5.11;72.76;94681.00;4957015;28;20200;-80
2021/01/17 07:47:32;;;;;;;26.20;15.68;;;;;;;-4.82;72.46;94679.31;5013365;28;20708;-79
2021/01/17 07:49:59;;;;;;;20.38;12.85;;;;;;;-4.68;72.13;94684.88;5013338;28;20285;-79
2021/01/17 07:52:26;;;;;;;33.42;15.40;;;;;;;-4.57;71.26;94682.84;5072766;28;20194;-78
2021/01/17 07:54:55;;;;;;;15.90;11.85;;;;;;;-4.85;70.73;94687.09;5061509;28;20211;-78
2021/01/17 07:57:24;;;;;;;24.35;14.18;;;;;;;-4.65;70.79;94687.34;5054735;28;20237;-78
2021/01/17 07:59:51;;;;;;;26.02;15.52;;;;;;;-4.68;70.89;94690.81;5055084;28;20209;-78
2021/01/17 08:02:28;;;;;;;28.60;15.02;;;;;;;-4.39;70.55;94697.63;5055230;28;20213;-79
2021/01/17 08:04:54;;;;;;;27.58;13.98;;;;;;;-4.16;69.75;94690.97;5054879;28;20202;-78
2021/01/17 08:07:38;;;;;;;31.10;17.77;;;;;;;-3.80;68.59;94694.91;5034735;28;20962;-78
2021/01/17 08:10:07;;;;;;;29.65;14.68;;;;;;;-3.50;67.04;94698.19;5036265;28;20281;-78
2021/01/17 08:12:39;;;;;;;38.72;16.33;;;;;;;-3.32;65.40;94695.91;5054923;28;20202;-78
2021/01/17 08:15:21;;;;;;;25.75;14.73;;;;;;;-3.15;64.06;94691.03;5069326;28;20217;-78
2021/01/17 08:17:50;;;;;;;35.40;15.82;;;;;;;-3.06;62.71;94690.69;5059812;28;20207;-78
2021/01/17 08:20:27;;;;;;;42.03;16.13;;;;;;;-2.90;61.45;94696.09;5057650;28;20284;-79
2021/01/17 08:23:13;;;;;;;20.85;13.10;;;;;;;-2.86;60.28;94684.84;5068700;28;20257;-79
2021/01/17 08:25:57;;;;;;;24.17;13.10;;;;;;;-2.91;60.87;94691.84;5040265;28;20198;-79
2021/01/17 08:28:33;;;;;;;20.00;13.23;;;;;;;-2.89;60.16;94688.38;5063960;28;20226;-78
2021/01/17 08:31:00;;;;;;;19.50;12.40;;;;;;;-2.86;60.27;94683.13;5065376;28;20209;-79
2021/01/17 08:33:28;;;;;;;29.65;12.07;;;;;;;-2.70;59.86;94682.53;5061380;28;20290;-79
2021/01/17 08:35:55;;;;;;;18.63;12.43;;;;;;;-2.57;59.37;94684.63;5054489;28;20324;-79
2021/01/17 08:38:25;;;;;;;25.00;13.10;;;;;;;-2.48;58.76;94685.16;5054215;28;20199;-80
2021/01/17 08:40:56;;;;;;;21.92;11.88;;;;;;;-2.44;58.58;94679.00;5054870;28;20203;-79
2021/01/17 08:43:39;;;;;;;34.85;21.77;;;;;;;-2.81;58.43;94690.66;5054815;28;20209;-80
2021/01/17 08:46:06;;;;;;;35.58;18.73;;;;;;;-2.75;59.16;94692.16;5054303;28;20260;-79
2021/01/17 08:48:33;;;;;;;34.85;18.70;;;;;;;-2.75;59.15;94695.56;5054825;28;20256;-80
2021/01/17 08:51:20;;;;;;;32.75;15.48;;;;;;;-2.60;58.91;94692.44;5064222;28;20470;-81
2021/01/17 08:53:47;;;;;;;41.25;22.02;;;;;;;-2.33;59.40;94690.53;5081374;28;20738;-79
2021/01/17 08:56:27;;;;;;;23.10;11.32;;;;;;;-2.23;56.53;94696.19;5072225;28;20400;-78
2021/01/17 08:58:55;;;;;;;14.10;6.93;;;;;;;-2.22;53.59;94692.72;5054503;28;20237;-80
2021/01/17 09:01:22;;;;;;;10.23;6.00;;;;;;;-2.31;51.74;94683.63;5067142;28;20195;-79
2021/01/17 09:04:05;;;;;;;8.43;6.70;;;;;;;-2.45;51.32;94685.88;5070682;28;20566;-79
2021/01/17 09:06:34;;;;;;;16.05;7.40;;;;;;;-2.62;51.22;94686.50;5078455;28;20226;-79
2021/01/17 09:09:14;;;;;;;17.70;8.85;;;;;;;-2.67;52.42;94701.25;5079412;28;20255;-79
2021/01/17 09:11:41;;;;;;;16.70;9.38;;;;;;;-2.58;52.72;94692.38;5074582;28;20213;-79
2021/01/17 09:14:29;;;;;;;23.30;10.40;;;;;;;-2.74;51.59;94698.97;5073585;28;20194;-79
2021/01/17 09:17:01;;;;;;;36.45;16.65;;;;;;;-2.72;52.93;94703.16;5073603;28;20294;-79
2021/01/17 09:19:31;;;;;;;23.05;8.88;;;;;;;-2.70;53.66;94698.78;5073386;28;20210;-79
2021/01/17 09:21:59;;;;;;;19.77;9.60;;;;;;;-2.64;53.00;94697.72;5059107;28;20246;-78
2021/01/17 09:24:27;;;;;;;17.45;9.07;;;;;;;-2.66;52.86;94686.66;5053430;28;20199;-79
2021/01/17 09:26:57;;;;;;;28.30;13.68;;;;;;;-2.63;53.38;94692.53;5052520;28;20961;-80
2021/01/17 09:29:32;;;;;;;14.98;9.80;;;;;;;-2.61;52.90;94689.91;5053318;28;20206;-79
2021/01/17 09:32:01;;;;;;;14.30;8.15;;;;;;;-2.58;52.90;94679.53;5052890;28;20190;-79
2021/01/17 09:34:31;;;;;;;17.90;10.10;;;;;;;-2.51;53.43;94674.09;5053020;28;20661;-79
2021/01/17 09:36:59;;;;;;;17.38;9.05;;;;;;;-2.34;53.61;94677.75;5053734;28;20297;-79
2021/01/17 09:39:30;;;;;;;20.80;10.25;;;;;;;-2.31;53.26;94668.22;5035303;28;20222;-79
2021/01/17 09:41:57;;;;;;;30.35;12.80;;;;;;;-2.28;53.25;94674.97;5053493;28;20203;-79
2021/01/17 09:44:23;;;;;;;12.13;7.32;;;;;;;-2.28;52.83;94672.41;5034863;28;20198;-79
2021/01/17 09:46:49;;;;;;;9.98;6.43;;;;;;;-2.23;52.76;94673.06;5053659;28;20217;-79
2021/01/17 09:49:21;;;;;;;8.27;6.97;;;;;;;-2.21;52.51;94654.09;5053459;28;20206;-78
2021/01/17 09:51:49;;;;;;;12.55;7.15;;;;;;;-2.28;52.97;94662.13;5053247;28;20198;-78
2021/01/17 09:54:16;;;;;;;11.77;7.75;;;;;;;-2.27;53.34;94663.78;5053302;28;20282;-79
2021/01/17 09:56:43;;;;;;;10.40;7.47;;;;;;;-2.20;52.68;94657.50;5062981;28;20284;-79
2021/01/17 09:59:14;;;;;;;11.18;6.10;;;;;;;-2.10;52.12;94651.09;5072790;28;20204;-79
2021/01/17 10:01:40;;;;;;;10.30;6.88;;;;;;;-1.94;52.18;94647.03;5073048;28;20206;-79
2021/01/17 10:04:07;;;;;;;11.82;7.10;;;;;;;-1.81;51.56;94638.81;5073325;28;20206;-78
2021/01/17 10:06:34;;;;;;;16.52;8.13;;;;;;;-1.77;50.38;94637.78;5073124;28;20253;-79
2021/01/17 10:09:01;;;;;;;12.20;7.15;;;;;;;-1.69;50.21;94631.44;5073272;28;20226;-78
2021/01/17 10:11:28;;;;;;;8.07;5.88;;;;;;;-1.65;50.35;94627.84;5054162;28;20281;-78
2021/01/17 10:13:54;;;;;;;17.77;10.00;;;;;;;-1.52;50.81;94617.84;5073601;28;20268;-78
2021/01/17 10:16:24;;;;;;;26.30;9.30;;;;;;;-1.48;49.87;94616.81;5072283;28;20215;-79
2021/01/17 10:18:51;;;;;;;13.70;7.88;;;;;;;-1.60;49.26;94610.47;5070822;28;20202;-78
2021/01/17 10:21:18;;;;;;;7.97;5.43;;;;;;;-1.93;49.81;94619.59;5071826;28;20209;-80
2021/01/17 10:23:45;;;;;;;10.45;8.15;;;;;;;-1.92;49.01;94606.66;5073311;28;20206;-81
2021/01/17 10:26:24;;;;;;;12.02;7.63;;;;;;;-1.96;51.05;94612.84;5065690;28;20226;-79
2021/01/17 10:28:50;;;;;;;7.95;6.85;;;;;;;-2.04;49.45;94614.84;5061311;28;20631;-78
2021/01/17 10:31:23;;;;;;;12.13;6.43;;;;;;;-2.06;50.53;94613.25;5049886;28;20206;-79
2021/01/17 10:33:49;;;;;;;9.55;6.65;;;;;;;-2.02;51.06;94609.69;5079290;28;20197;-80
2021/01/17 10:36:17;;;;;;;21.90;10.07;;;;;;;-2.02;49.65;94602.81;5079404;28;20208;-80
2021/01/17 10:38:43;;;;;;;14.57;7.60;;;;;;;-1.98;50.59;94603.50;5079841;28;20202;-79
2021/01/17 10:41:12;;;;;;;19.83;8.25;;;;;;;-1.99;50.65;94607.00;5075901;28;20204;-79
2021/01/17 10:43:42;;;;;;;24.38;11.07;;;;;;;-1.99;50.25;94605.25;5079195;28;20202;-78
2021/01/17 10:46:15;;;;;;;32.42;13.45;;;;;;;-1.92;50.08;94601.53;5079245;28;20202;-79
2021/01/17 10:48:48;;;;;;;27.83;13.02;;;;;;;-2.09;50.41;94596.22;5079365;28;20202;-79
2021/01/17 10:51:20;;;;;;;55.22;14.50;;;;;;;-2.27;50.12;94599.56;5070334;28;20217;-78
2021/01/17 10:53:50;;;;;;;14.45;8.07;;;;;;;-2.20;50.37;94600.97;5059169;28;20206;-80
2021/01/17 10:56:19;;;;;;;12.43;8.13;;;;;;;-2.17;50.87;94597.44;5059024;28;20210;-80
2021/01/17 10:58:48;;;;;;;23.00;11.50;;;;;;;-2.13;50.91;94594.69;5023549;28;20307;-78
2021/01/17 11:01:15;;;;;;;17.67;9.30;;;;;;;-2.03;51.32;94595.97;5058662;28;20198;-79
2021/01/17 11:03:42;;;;;;;18.45;10.20;;;;;;;-1.84;51.23;94588.34;5058953;28;20209;-80
2021/01/17 11:06:11;;;;;;;18.25;11.07;;;;;;;-1.72;50.44;94592.16;5039974;28;20195;-79
2021/01/17 11:08:42;;;;;;;15.55;10.32;;;;;;;-1.67;50.43;94590.22;5059066;28;20252;-78
2021/01/17 11:11:09;;;;;;;19.30;8.95;;;;;;;-1.61;50.77;94592.53;5058795;28;20600;-80
2021/01/17 11:13:35;;;;;;;16.95;9.88;;;;;;;-1.59;50.15;94590.72;5058680;28;20214;-78
2021/01/17 11:16:03;;;;;;;8.27;6.55;;;;;;;-1.60;49.83;94589.88;5023476;28;20228;-79
2021/01/17 11:18:30;;;;;;;18.75;9.35;;;;;;;-1.56;49.58;94594.00;5058479;28;20807;-80
2021/01/17 11:20:58;;;;;;;16.60;10.40;;;;;;;-1.55;48.87;94584.53;5023559;28;20205;-78
2021/01/17 11:23:26;;;;;;;23.65;11.38;;;;;;;-1.63;49.35;94589.19;5058869;28;20284;-79
2021/01/17 11:26:02;;;;;;;12.30;9.60;;;;;;;-1.46;49.31;94578.97;5058557;28;20202;-80
2021/01/17 11:28:30;;;;;;;14.38;9.05;;;;;;;-1.50;48.59;94574.03;5058506;28;20241;-80
2021/01/17 11:30:57;;;;;;;13.88;9.02;;;;;;;-1.51;48.49;94587.81;5056765;28;20202;-79
2021/01/17 11:33:29;;;;;;;10.05;6.75;;;;;;;-1.44;48.83;94579.78;5020575;28;20586;-80
2021/01/17 11:36:01;;;;;;;15.57;8.43;;;;;;;-1.32;48.29;94581.81;5055331;28;20662;-78